Time;durP1;ratioP1;P1;durP2;ratioP2;P2;SDS_P1;SDS_P2;PMS_P1;PMS_P2;Temp;Humidity;BMP_temperature;BMP_pressure;BME280_temperature;BME280_humidity;BME280_pressure;Samples;Min_cycle;Max_cycle;Signal;HPM_P1;HPM_P2
2023/09/05 00:01:50;;;;;;;2.75;2.00;;;;;;;;;;5144949;27;20382;-82
2023/09/05 00:04:15;;;;;;;3.10;2.10;;;;;;;;;;5133468;27;20043;-80
2023/09/05 00:06:41;;;;;;;2.28;2.08;;;;;;;;;;5139954;27;20083;-82
2023/09/05 00:09:06;;;;;;;4.60;2.00;;;;;;;;;;5132067;27;20027;-82
2023/09/05 00:11:33;;;;;;;3.15;2.42;;;;;;;;;;5135354;27;20338;-83
2023/09/05 00:14:00;;;;;;;2.47;2.13;;;;;;;;;;5136617;27;20031;-83
2023/09/05 00:16:26;;;;;;;4.10;2.55;;;;;;;;;;5136885;27;20054;-83
2023/09/05 00:18:52;;;;;;;3.38;2.42;;;;;;;;;;5137902;27;20521;-83
2023/09/05 00:21:18;;;;;;;2.72;2.47;;;;;;;;;;5138354;27;20186;-82
2023/09/05 00:23:44;;;;;;;7.50;2.33;;;;;;;;;;5136945;27;20574;-81
2023/09/05 00:26:10;;;;;;;2.72;2.53;;;;;;;;;;5123354;27;20047;-81
2023/09/05 00:28:35;;;;;;;3.05;2.25;;;;;;;;;;5151018;27;20035;-81
2023/09/05 00:31:01;;;;;;;2.65;1.95;;;;;;;;;;5157433;27;20027;-82
2023/09/05 00:33:29;;;;;;;4.15;2.70;;;;;;;;;;5156682;27;20030;-81
2023/09/05 00:35:55;;;;;;;2.42;2.20;;;;;;;;;;5157952;27;20015;-82
2023/09/05 00:38:22;;;;;;;6.25;2.30;;;;;;;;;;5156347;27;20389;-82
2023/09/05 00:40:51;;;;;;;6.15;2.20;;;;;;;;;;5156830;27;20121;-83
2023/09/05 00:43:20;;;;;;;5.30;2.50;;;;;;;;;;5156684;27;20038;-83
2023/09/05 00:45:51;;;;;;;2.47;2.28;;;;;;;;;;5137841;27;20046;-84
2023/09/05 00:48:17;;;;;;;4.07;2.95;;;;;;;;;;5138915;27;20033;-84
2023/09/05 00:50:46;;;;;;;3.53;2.25;;;;;;;;;;5160355;27;20014;-84
2023/09/05 00:53:12;;;;;;;3.45;2.53;;;;;;;;;;5160571;27;20030;-83
2023/09/05 00:55:37;;;;;;;2.45;2.20;;;;;;;;;;5159729;27;20321;-85
2023/09/05 00:58:03;;;;;;;2.75;2.28;;;;;;;;;;5141122;27;20406;-86
2023/09/05 01:00:29;;;;;;;3.72;2.50;;;;;;;;;;5159718;27;20449;-85
2023/09/05 01:02:54;;;;;;;3.35;2.20;;;;;;;;;;5157907;27;20122;-82
2023/09/05 01:05:27;;;;;;;5.95;2.20;;;;;;;;;;5131384;27;20061;-83
2023/09/05 01:08:15;;;;;;;4.15;2.67;;;;;;;;;;5141083;27;20043;-80
2023/09/05 01:10:58;;;;;;;2.95;2.17;;;;;;;;;;5134525;27;20111;-82
2023/09/05 01:13:25;;;;;;;4.55;2.50;;;;;;;;;;5135663;27;20515;-81
2023/09/05 01:15:51;;;;;;;5.13;2.40;;;;;;;;;;5136748;27;20839;-80
2023/09/05 01:18:16;;;;;;;4.88;2.60;;;;;;;;;;5118763;27;20039;-82
2023/09/05 01:21:23;;;;;;;3.88;2.38;;;;;;;;;;5139693;27;20254;-82
2023/09/05 01:24:17;;;;;;;2.63;2.38;;;;;;;;;;5137101;27;20511;-81
2023/09/05 01:26:43;;;;;;;2.80;2.30;;;;;;;;;;5138296;27;20552;-81
2023/09/05 01:29:15;;;;;;;3.05;2.30;;;;;;;;;;5138040;27;20035;-82
2023/09/05 01:31:41;;;;;;;3.05;2.40;;;;;;;;;;5133078;27;20023;-82
2023/09/05 01:34:06;;;;;;;3.47;2.45;;;;;;;;;;5134244;27;20118;-81
2023/09/05 01:36:32;;;;;;;2.80;2.35;;;;;;;;;;5137668;27;20092;-82
2023/09/05 01:38:57;;;;;;;4.55;2.47;;;;;;;;;;5137125;27;20023;-80
2023/09/05 01:41:22;;;;;;;3.70;2.38;;;;;;;;;;5117970;27;20027;-79
2023/09/05 01:43:48;;;;;;;5.13;2.70;;;;;;;;;;5137889;27;20311;-81
2023/09/05 01:46:13;;;;;;;4.30;2.60;;;;;;;;;;5134655;27;20119;-83
2023/09/05 01:48:38;;;;;;;3.38;2.80;;;;;;;;;;5138494;27;20106;-81
2023/09/05 01:51:04;;;;;;;2.67;2.40;;;;;;;;;;5139233;27;20026;-83
2023/09/05 01:53:29;;;;;;;4.03;3.08;;;;;;;;;;5133611;27;20507;-82
2023/09/05 01:55:55;;;;;;;3.35;2.80;;;;;;;;;;5136879;27;20034;-82
2023/09/05 01:58:20;;;;;;;3.00;2.53;;;;;;;;;;5134932;27;20042;-82
2023/09/05 02:00:45;;;;;;;3.63;2.10;;;;;;;;;;5138904;27;20263;-82
2023/09/05 02:03:11;;;;;;;5.03;2.80;;;;;;;;;;5135235;27;20054;-82
2023/09/05 02:05:36;;;;;;;5.55;2.53;;;;;;;;;;5138929;27;20023;-82
2023/09/05 02:08:02;;;;;;;6.85;2.75;;;;;;;;;;5137617;27;20372;-80
2023/09/05 02:10:29;;;;;;;4.53;2.30;;;;;;;;;;5140156;27;20440;-80
2023/09/05 02:12:55;;;;;;;5.97;2.80;;;;;;;;;;5118844;27;20412;-80
2023/09/05 02:15:20;;;;;;;2.55;2.15;;;;;;;;;;5137864;27;20023;-82
2023/09/05 02:17:46;;;;;;;3.17;2.60;;;;;;;;;;5134990;27;20034;-80
2023/09/05 02:20:11;;;;;;;3.40;2.50;;;;;;;;;;5140474;27;20030;-79
2023/09/05 02:22:36;;;;;;;3.80;2.30;;;;;;;;;;5115656;27;20088;-83
2023/09/05 02:25:01;;;;;;;4.10;2.53;;;;;;;;;;5133678;27;20114;-83
2023/09/05 02:27:27;;;;;;;2.85;2.50;;;;;;;;;;5142427;27;20045;-83
2023/09/05 02:30:01;;;;;;;3.42;2.60;;;;;;;;;;5136652;27;20169;-83
2023/09/05 02:32:29;;;;;;;2.92;2.47;;;;;;;;;;5134812;27;20039;-83
2023/09/05 02:34:55;;;;;;;4.32;2.50;;;;;;;;;;5139263;27;20058;-83
2023/09/05 02:37:21;;;;;;;3.35;2.35;;;;;;;;;;5143945;27;20038;-80
2023/09/05 02:39:46;;;;;;;4.00;2.75;;;;;;;;;;5125257;27;20027;-83
2023/09/05 02:42:11;;;;;;;6.95;2.60;;;;;;;;;;5149425;27;20022;-83
2023/09/05 02:44:36;;;;;;;3.67;2.67;;;;;;;;;;5120352;27;20031;-81
2023/09/05 02:47:02;;;;;;;4.15;2.67;;;;;;;;;;5119132;27;20038;-81
2023/09/05 02:49:27;;;;;;;3.33;2.67;;;;;;;;;;5134491;27;20545;-82
2023/09/05 02:51:52;;;;;;;3.15;2.40;;;;;;;;;;5137412;27;20049;-82
2023/09/05 02:54:18;;;;;;;4.25;2.75;;;;;;;;;;5136335;27;20038;-81
2023/09/05 02:56:43;;;;;;;3.83;2.55;;;;;;;;;;5135404;27;20092;-82
2023/09/05 02:59:09;;;;;;;3.33;2.70;;;;;;;;;;5133839;27;20055;-82
2023/09/05 03:01:34;;;;;;;5.68;2.63;;;;;;;;;;5137447;27;20106;-82
2023/09/05 03:03:59;;;;;;;3.85;2.70;;;;;;;;;;5115353;27;20052;-82
2023/09/05 03:06:25;;;;;;;3.50;2.40;;;;;;;;;;5139366;27;20031;-82
2023/09/05 03:08:50;;;;;;;4.95;2.78;;;;;;;;;;5141835;27;20099;-81
2023/09/05 03:11:17;;;;;;;3.08;2.50;;;;;;;;;;5138977;27;20058;-82
2023/09/05 03:13:43;;;;;;;3.25;2.35;;;;;;;;;;5123052;27;20031;-82
2023/09/05 03:16:08;;;;;;;3.95;2.70;;;;;;;;;;5135583;27;20040;-81
2023/09/05 03:18:33;;;;;;;3.38;2.95;;;;;;;;;;5137615;27;20046;-83
2023/09/05 03:20:59;;;;;;;3.03;2.72;;;;;;;;;;5118962;27;20511;-81
2023/09/05 03:23:25;;;;;;;8.30;3.10;;;;;;;;;;5136796;27;20063;-82
2023/09/05 03:25:52;;;;;;;4.88;3.25;;;;;;;;;;5119137;27;20932;-82
2023/09/05 03:28:17;;;;;;;5.15;3.33;;;;;;;;;;5142290;27;20058;-82
2023/09/05 03:30:42;;;;;;;3.15;2.60;;;;;;;;;;5119945;27;20031;-82
2023/09/05 03:33:08;;;;;;;4.03;3.17;;;;;;;;;;5137201;27;20030;-80
2023/09/05 03:35:34;;;;;;;4.50;2.95;;;;;;;;;;5120671;27;20017;-81
2023/09/05 03:38:00;;;;;;;5.38;2.88;;;;;;;;;;5147884;27;20101;-81
2023/09/05 03:40:26;;;;;;;4.30;3.15;;;;;;;;;;5144859;27;20053;-83
2023/09/05 03:42:51;;;;;;;4.10;2.78;;;;;;;;;;5141224;27;20054;-82
2023/09/05 03:45:18;;;;;;;4.80;3.38;;;;;;;;;;5144382;27;20038;-82
2023/09/05 03:47:43;;;;;;;4.40;3.20;;;;;;;;;;5127454;27;20942;-81
2023/09/05 03:50:08;;;;;;;4.05;3.10;;;;;;;;;;5142485;27;20488;-79
2023/09/05 03:52:34;;;;;;;4.03;3.35;;;;;;;;;;5142353;27;20035;-80
2023/09/05 03:54:59;;;;;;;5.32;2.70;;;;;;;;;;5141968;27;20050;-80
2023/09/05 03:57:24;;;;;;;12.10;3.30;;;;;;;;;;5160004;27;20027;-79
2023/09/05 03:59:50;;;;;;;12.23;3.15;;;;;;;;;;5144625;27;20108;-79
2023/09/05 04:02:15;;;;;;;3.83;2.95;;;;;;;;;;5144078;27;20126;-80
2023/09/05 04:04:40;;;;;;;7.05;3.00;;;;;;;;;;5143845;27;20046;-80
2023/09/05 04:07:06;;;;;;;6.70;3.03;;;;;;;;;;5142675;27;20097;-79
2023/09/05 04:09:32;;;;;;;4.35;2.75;;;;;;;;;;5145104;27;20035;-79
2023/09/05 04:11:57;;;;;;;4.63;3.60;;;;;;;;;;5138774;27;20481;-83
2023/09/05 04:14:22;;;;;;;3.92;3.00;;;;;;;;;;5150695;27;20101;-82
2023/09/05 04:16:47;;;;;;;4.95;3.38;;;;;;;;;;5146274;27;20092;-82
2023/09/05 04:19:13;;;;;;;6.85;3.20;;;;;;;;;;5139160;27;20046;-82
2023/09/05 04:21:39;;;;;;;3.50;3.08;;;;;;;;;;5121273;27;20039;-81
2023/09/05 04:24:05;;;;;;;5.10;2.90;;;;;;;;;;5143591;27;20102;-80
2023/09/05 04:26:30;;;;;;;3.85;3.00;;;;;;;;;;5142801;27;20031;-79
2023/09/05 04:28:55;;;;;;;6.18;2.97;;;;;;;;;;5147812;27;20058;-78
2023/09/05 04:31:21;;;;;;;10.80;3.30;;;;;;;;;;5162173;27;20031;-81
2023/09/05 04:33:48;;;;;;;3.90;3.17;;;;;;;;;;5144482;27;20076;-79
2023/09/05 04:36:14;;;;;;;7.32;3.22;;;;;;;;;;5161315;27;20047;-79
2023/09/05 04:38:43;;;;;;;3.53;3.13;;;;;;;;;;5132010;27;20019;-80
2023/09/05 04:41:09;;;;;;;5.75;3.08;;;;;;;;;;5123727;27;20569;-83
2023/09/05 04:43:34;;;;;;;3.85;3.05;;;;;;;;;;5121048;27;20047;-84
2023/09/05 04:46:01;;;;;;;6.45;3.53;;;;;;;;;;5139911;27;20035;-84
2023/09/05 04:48:26;;;;;;;5.65;3.63;;;;;;;;;;5140275;27;20034;-83
2023/09/05 04:50:52;;;;;;;6.60;3.90;;;;;;;;;;5140293;27;20441;-83
2023/09/05 04:53:18;;;;;;;5.10;4.03;;;;;;;;;;5120852;27;20057;-84
2023/09/05 04:55:43;;;;;;;8.27;3.55;;;;;;;;;;5139752;27;20031;-84
2023/09/05 04:58:09;;;;;;;4.07;3.67;;;;;;;;;;5139595;27;20032;-84
2023/09/05 05:00:34;;;;;;;6.28;3.90;;;;;;;;;;5139241;27;20030;-85
2023/09/05 05:03:00;;;;;;;4.93;3.55;;;;;;;;;;5140217;27;20019;-84
2023/09/05 05:05:25;;;;;;;8.65;3.90;;;;;;;;;;5139719;27;20035;-83
2023/09/05 05:07:51;;;;;;;3.95;3.10;;;;;;;;;;5147492;27;20480;-83
2023/09/05 05:10:16;;;;;;;6.30;3.33;;;;;;;;;;5141043;27;20057;-80
2023/09/05 05:12:42;;;;;;;6.25;3.38;;;;;;;;;;5144435;27;20034;-81
2023/09/05 05:15:08;;;;;;;6.80;3.33;;;;;;;;;;5130682;27;20027;-82
2023/09/05 05:17:34;;;;;;;5.18;3.60;;;;;;;;;;5135259;27;20500;-84
2023/09/05 05:19:59;;;;;;;4.18;3.50;;;;;;;;;;5140403;27;20038;-85
2023/09/05 05:22:24;;;;;;;8.77;3.17;;;;;;;;;;5141953;27;20031;-81
2023/09/05 05:24:51;;;;;;;6.32;3.92;;;;;;;;;;5079934;22;20050;-79
2023/09/05 05:27:17;;;;;;;4.35;3.20;;;;;;;;;;5015216;28;20116;-77
2023/09/05 05:29:42;;;;;;;4.28;2.90;;;;;;;;;;5015581;28;20060;-80
2023/09/05 05:32:08;;;;;;;5.65;3.47;;;;;;;;;;4998434;28;20034;-79
2023/09/05 05:34:33;;;;;;;6.72;3.55;;;;;;;;;;4998608;28;20042;-78
2023/09/05 05:36:58;;;;;;;8.05;3.80;;;;;;;;;;4998983;28;20044;-80
2023/09/05 05:39:25;;;;;;;3.90;3.20;;;;;;;;;;4998971;28;20047;-79
2023/09/05 05:41:50;;;;;;;3.95;2.92;;;;;;;;;;5046009;28;20106;-82
2023/09/05 05:44:16;;;;;;;4.50;3.30;;;;;;;;;;5101899;28;20108;-78
2023/09/05 05:46:41;;;;;;;8.88;3.95;;;;;;;;;;5100936;28;20028;-79
2023/09/05 05:49:08;;;;;;;5.38;3.58;;;;;;;;;;5039687;28;20042;-79
2023/09/05 05:51:34;;;;;;;9.18;3.25;;;;;;;;;;5032954;28;20497;-79
2023/09/05 05:53:59;;;;;;;3.95;2.92;;;;;;;;;;5020709;28;20025;-79
2023/09/05 05:56:24;;;;;;;6.70;3.03;;;;;;;;;;5024431;28;20038;-79
2023/09/05 05:58:50;;;;;;;5.28;3.25;;;;;;;;;;4999825;28;20090;-78
2023/09/05 06:01:17;;;;;;;4.75;2.83;;;;;;;;;;5017480;28;20041;-78
2023/09/05 06:03:43;;;;;;;4.10;3.25;;;;;;;;;;4999494;28;20046;-79
2023/09/05 06:06:09;;;;;;;5.32;3.17;;;;;;;;;;5017536;28;20026;-79
2023/09/05 06:08:34;;;;;;;3.70;3.30;;;;;;;;;;5001970;28;20129;-78
2023/09/05 06:10:59;;;;;;;4.63;3.00;;;;;;;;;;5014092;28;20459;-79
2023/09/05 06:13:25;;;;;;;3.38;2.95;;;;;;;;;;5016647;28;20499;-78
2023/09/05 06:15:50;;;;;;;7.43;3.55;;;;;;;;;;5017177;28;20030;-78
2023/09/05 06:18:15;;;;;;;4.82;3.22;;;;;;;;;;5015930;28;20065;-78
2023/09/05 06:20:41;;;;;;;6.15;3.85;;;;;;;;;;5067554;28;20385;-79
2023/09/05 06:23:06;;;;;;;4.38;3.22;;;;;;;;;;5117288;28;20568;-79
2023/09/05 06:25:31;;;;;;;5.95;3.08;;;;;;;;;;5117373;28;20027;-79
2023/09/05 06:27:58;;;;;;;3.55;3.08;;;;;;;;;;5117706;28;20123;-79
2023/09/05 06:30:23;;;;;;;3.88;3.20;;;;;;;;;;5100452;28;20055;-79
2023/09/05 06:32:49;;;;;;;9.13;3.38;;;;;;;;;;5119019;28;20039;-78
2023/09/05 06:35:15;;;;;;;4.53;3.05;;;;;;;;;;5117881;28;20032;-79
2023/09/05 06:37:40;;;;;;;5.50;3.70;;;;;;;;;;5117931;28;20038;-78
2023/09/05 06:40:09;;;;;;;4.20;2.85;;;;;;;;;;5099604;28;20081;-79
2023/09/05 06:42:37;;;;;;;6.20;3.50;;;;;;;;;;5099284;28;20038;-79
2023/09/05 06:45:06;;;;;;;3.75;3.38;;;;;;;;;;5119491;28;20521;-78
2023/09/05 06:47:31;;;;;;;4.28;3.40;;;;;;;;;;5117753;28;20473;-78
2023/09/05 06:49:57;;;;;;;3.80;3.00;;;;;;;;;;4997205;28;20042;-78
2023/09/05 06:52:22;;;;;;;4.78;2.92;;;;;;;;;;5014248;28;20429;-78
2023/09/05 06:54:47;;;;;;;3.08;2.80;;;;;;;;;;5014761;28;20451;-79
2023/09/05 06:57:16;;;;;;;3.25;2.83;;;;;;;;;;5014567;28;20029;-79
2023/09/05 06:59:41;;;;;;;4.80;3.08;;;;;;;;;;4998373;28;20399;-78
2023/09/05 07:02:07;;;;;;;3.58;3.10;;;;;;;;;;5013281;28;20038;-78
2023/09/05 07:04:36;;;;;;;4.20;3.45;;;;;;;;;;5013623;28;20034;-79
2023/09/05 07:07:05;;;;;;;5.50;3.28;;;;;;;;;;5014071;28;20042;-79
2023/09/05 07:09:31;;;;;;;3.42;3.00;;;;;;;;;;5012487;28;20030;-78
2023/09/05 07:11:56;;;;;;;3.83;3.17;;;;;;;;;;5012256;28;20036;-78
2023/09/05 07:14:22;;;;;;;3.67;3.00;;;;;;;;;;5012261;28;20033;-79
2023/09/05 07:16:47;;;;;;;4.35;3.13;;;;;;;;;;5014080;28;20151;-78
2023/09/05 07:19:13;;;;;;;3.03;2.83;;;;;;;;;;5014482;28;20034;-79
2023/09/05 07:21:40;;;;;;;9.13;3.10;;;;;;;;;;5012026;28;20060;-79
2023/09/05 07:24:10;;;;;;;4.30;3.35;;;;;;;;;;5012400;28;20034;-79
2023/09/05 07:26:38;;;;;;;3.25;2.95;;;;;;;;;;5014007;28;20026;-80
2023/09/05 07:29:03;;;;;;;4.60;3.00;;;;;;;;;;5011879;28;20030;-77
2023/09/05 07:31:31;;;;;;;4.45;2.83;;;;;;;;;;5010773;28;20087;-77
2023/09/05 07:33:57;;;;;;;6.80;2.92;;;;;;;;;;5012354;28;20126;-77
2023/09/05 07:36:22;;;;;;;4.50;3.13;;;;;;;;;;5012678;28;20033;-77
2023/09/05 07:38:48;;;;;;;6.75;3.80;;;;;;;;;;5013430;28;20030;-78
2023/09/05 07:41:13;;;;;;;6.78;2.80;;;;;;;;;;5012324;28;20128;-77
2023/09/05 07:43:38;;;;;;;3.15;2.85;;;;;;;;;;5011451;28;20155;-77
2023/09/05 07:46:04;;;;;;;4.43;2.88;;;;;;;;;;5012331;28;20038;-77
2023/09/05 07:48:29;;;;;;;3.88;3.10;;;;;;;;;;5011089;28;20032;-77
2023/09/05 07:51:05;;;;;;;4.07;2.88;;;;;;;;;;5013685;28;20049;-77
2023/09/05 07:53:35;;;;;;;5.07;2.90;;;;;;;;;;5016121;28;20156;-78
2023/09/05 07:56:00;;;;;;;2.78;2.58;;;;;;;;;;5016236;28;20038;-77
2023/09/05 07:58:26;;;;;;;4.22;3.20;;;;;;;;;;5014840;28;20486;-78
2023/09/05 08:00:53;;;;;;;3.78;3.40;;;;;;;;;;5016678;28;20038;-78
2023/09/05 08:03:21;;;;;;;5.07;3.78;;;;;;;;;;5015643;28;20030;-78
2023/09/05 08:05:48;;;;;;;5.32;3.45;;;;;;;;;;5015744;28;20166;-78
2023/09/05 08:08:14;;;;;;;3.70;3.40;;;;;;;;;;5005471;28;20037;-77
2023/09/05 08:10:40;;;;;;;4.70;3.33;;;;;;;;;;5017178;28;20057;-79
2023/09/05 08:13:06;;;;;;;3.92;3.13;;;;;;;;;;5016767;28;20053;-77
2023/09/05 08:15:32;;;;;;;5.47;3.30;;;;;;;;;;5015653;28;20046;-78
2023/09/05 08:17:57;;;;;;;4.78;3.35;;;;;;;;;;5016093;28;20034;-78
2023/09/05 08:20:22;;;;;;;4.43;3.28;;;;;;;;;;5015592;28;20037;-78
2023/09/05 08:22:48;;;;;;;4.07;3.42;;;;;;;;;;5016563;28;20038;-78
2023/09/05 08:25:15;;;;;;;6.45;3.35;;;;;;;;;;5016050;28;20064;-78
2023/09/05 08:27:44;;;;;;;6.40;3.33;;;;;;;;;;5014919;28;20038;-78
2023/09/05 08:30:11;;;;;;;4.82;3.60;;;;;;;;;;5016302;28;20022;-78
2023/09/05 08:32:38;;;;;;;3.80;3.05;;;;;;;;;;5015736;28;20022;-77
2023/09/05 08:35:05;;;;;;;5.20;3.45;;;;;;;;;;5015749;28;20033;-78
2023/09/05 08:37:32;;;;;;;6.70;3.30;;;;;;;;;;5016808;28;20032;-78
2023/09/05 08:39:57;;;;;;;5.75;3.45;;;;;;;;;;5014482;28;20038;-79
2023/09/05 08:42:23;;;;;;;4.28;3.40;;;;;;;;;;5003722;28;20049;-77
2023/09/05 08:44:51;;;;;;;3.30;3.00;;;;;;;;;;5014990;28;20032;-78
2023/09/05 08:47:16;;;;;;;3.90;3.42;;;;;;;;;;4996868;28;20538;-78
2023/09/05 08:49:43;;;;;;;4.57;3.67;;;;;;;;;;5013821;28;20034;-78
2023/09/05 08:52:11;;;;;;;4.60;3.60;;;;;;;;;;5014247;28;20091;-78
2023/09/05 08:54:37;;;;;;;3.20;2.90;;;;;;;;;;5014403;28;20049;-78
2023/09/05 08:57:04;;;;;;;3.70;3.13;;;;;;;;;;5015009;28;20032;-79
2023/09/05 08:59:29;;;;;;;3.97;3.45;;;;;;;;;;5015164;28;20128;-78
2023/09/05 09:01:54;;;;;;;3.83;3.28;;;;;;;;;;5014983;28;20053;-78
2023/09/05 09:04:21;;;;;;;5.53;3.13;;;;;;;;;;5024661;28;20037;-77
2023/09/05 09:06:54;;;;;;;4.70;3.00;;;;;;;;;;5015896;28;20520;-79
2023/09/05 09:09:36;;;;;;;3.30;3.00;;;;;;;;;;5033756;28;20021;-79
2023/09/05 09:12:04;;;;;;;5.68;2.83;;;;;;;;;;5034604;28;20021;-78
2023/09/05 09:14:30;;;;;;;3.15;2.80;;;;;;;;;;5034557;28;20045;-78
2023/09/05 09:16:59;;;;;;;3.80;3.17;;;;;;;;;;5033131;28;20033;-77
2023/09/05 09:19:24;;;;;;;5.03;3.10;;;;;;;;;;5033934;28;20025;-78
2023/09/05 09:21:49;;;;;;;2.58;2.38;;;;;;;;;;5016429;28;20060;-78
2023/09/05 09:24:18;;;;;;;5.28;3.22;;;;;;;;;;5033470;28;20030;-78
2023/09/05 09:26:44;;;;;;;3.03;2.70;;;;;;;;;;5033717;28;20030;-78
2023/09/05 09:29:10;;;;;;;3.38;2.88;;;;;;;;;;5033411;28;20716;-79
2023/09/05 09:31:37;;;;;;;9.80;3.15;;;;;;;;;;5033541;28;20048;-78
2023/09/05 09:34:02;;;;;;;6.75;3.00;;;;;;;;;;5033261;28;20080;-79
2023/09/05 09:36:36;;;;;;;3.33;3.03;;;;;;;;;;5034008;28;20034;-78
2023/09/05 09:39:10;;;;;;;4.25;3.58;;;;;;;;;;5016017;28;20029;-78
2023/09/05 09:41:43;;;;;;;7.57;3.35;;;;;;;;;;5033622;28;20049;-79
2023/09/05 09:44:09;;;;;;;3.70;3.00;;;;;;;;;;5032787;28;20038;-78
2023/09/05 09:46:35;;;;;;;6.35;2.85;;;;;;;;;;5033039;28;20082;-79
2023/09/05 09:49:02;;;;;;;3.88;2.45;;;;;;;;;;5033072;28;20062;-79
2023/09/05 09:51:32;;;;;;;4.03;3.00;;;;;;;;;;5033122;28;20026;-78
2023/09/05 09:54:00;;;;;;;5.15;2.80;;;;;;;;;;5032536;28;20045;-79
2023/09/05 09:56:26;;;;;;;4.88;3.13;;;;;;;;;;5032376;28;20030;-79
2023/09/05 09:58:56;;;;;;;7.55;3.03;;;;;;;;;;5031471;28;20043;-78
2023/09/05 10:01:23;;;;;;;3.35;2.88;;;;;;;;;;5032096;28;20454;-78
2023/09/05 10:03:50;;;;;;;4.82;3.25;;;;;;;;;;5032271;28;20029;-77
2023/09/05 10:06:16;;;;;;;2.90;2.65;;;;;;;;;;5032194;28;20059;-78
2023/09/05 10:08:44;;;;;;;4.05;2.72;;;;;;;;;;5033302;28;20030;-78
2023/09/05 10:11:10;;;;;;;3.30;2.92;;;;;;;;;;5014772;28;20038;-78
2023/09/05 10:13:37;;;;;;;2.92;2.65;;;;;;;;;;5032595;28;20059;-78
2023/09/05 10:16:03;;;;;;;3.40;3.10;;;;;;;;;;5032751;28;20098;-79
2023/09/05 10:18:32;;;;;;;3.10;2.80;;;;;;;;;;5032411;28;20033;-79
2023/09/05 10:21:01;;;;;;;3.20;2.83;;;;;;;;;;5033227;28;20029;-78
2023/09/05 10:23:30;;;;;;;6.93;3.45;;;;;;;;;;5032695;28;20663;-79
2023/09/05 10:25:57;;;;;;;3.10;2.47;;;;;;;;;;5014625;28;20025;-78
2023/09/05 10:28:29;;;;;;;4.75;2.80;;;;;;;;;;5032269;28;20045;-77
2023/09/05 10:31:05;;;;;;;6.03;2.50;;;;;;;;;;5032749;28;20494;-79
2023/09/05 10:33:36;;;;;;;3.33;2.78;;;;;;;;;;5032584;28;20072;-77
2023/09/05 10:36:02;;;;;;;3.88;2.85;;;;;;;;;;5015784;28;20422;-79
2023/09/05 10:38:29;;;;;;;3.95;2.70;;;;;;;;;;5032879;28;20030;-79
2023/09/05 10:40:55;;;;;;;2.50;2.30;;;;;;;;;;5032368;28;20037;-78
2023/09/05 10:43:22;;;;;;;2.30;2.10;;;;;;;;;;5031860;28;20042;-79
2023/09/05 10:45:55;;;;;;;3.05;2.75;;;;;;;;;;5031957;28;20041;-78
2023/09/05 10:48:40;;;;;;;4.72;2.25;;;;;;;;;;5032150;28;20092;-78
2023/09/05 10:51:07;;;;;;;6.13;2.70;;;;;;;;;;5032066;28;20045;-79
2023/09/05 10:53:36;;;;;;;2.60;2.10;;;;;;;;;;5015024;28;20468;-79
2023/09/05 10:56:02;;;;;;;3.10;2.40;;;;;;;;;;5032109;28;20030;-79
2023/09/05 10:58:42;;;;;;;3.75;3.10;;;;;;;;;;5031646;28;20074;-77
2023/09/05 11:01:37;;;;;;;4.00;2.22;;;;;;;;;;5031696;28;20043;-78
2023/09/05 11:04:07;;;;;;;2.75;2.55;;;;;;;;;;5031761;28;20053;-78
2023/09/05 11:06:51;;;;;;;3.97;2.92;;;;;;;;;;5017382;28;20041;-78
2023/09/05 11:09:16;;;;;;;2.20;2.08;;;;;;;;;;5017195;28;20429;-79
2023/09/05 11:11:45;;;;;;;2.80;2.60;;;;;;;;;;5018375;28;20017;-77
2023/09/05 11:14:10;;;;;;;2.88;2.55;;;;;;;;;;5035258;28;20490;-77
2023/09/05 11:16:46;;;;;;;2.60;2.40;;;;;;;;;;5035381;28;20029;-78
2023/09/05 11:19:32;;;;;;;3.95;2.17;;;;;;;;;;5017286;28;20112;-78
2023/09/05 11:22:08;;;;;;;2.83;2.05;;;;;;;;;;5034335;28;20055;-78
2023/09/05 11:24:34;;;;;;;3.58;2.10;;;;;;;;;;5044171;28;20374;-78
2023/09/05 11:26:59;;;;;;;3.40;2.10;;;;;;;;;;5061222;28;20042;-78
2023/09/05 11:29:27;;;;;;;2.30;2.10;;;;;;;;;;5053670;28;20037;-78
2023/09/05 11:31:56;;;;;;;2.38;2.17;;;;;;;;;;5076049;28;20042;-78
2023/09/05 11:34:21;;;;;;;2.40;2.20;;;;;;;;;;5057262;28;20050;-78
2023/09/05 11:36:47;;;;;;;2.75;2.30;;;;;;;;;;5047873;28;20045;-78
2023/09/05 11:39:12;;;;;;;2.55;2.10;;;;;;;;;;5050518;28;20038;-78
2023/09/05 11:41:41;;;;;;;2.00;1.90;;;;;;;;;;5066862;28;20072;-78
2023/09/05 11:44:06;;;;;;;2.35;2.15;;;;;;;;;;5047881;28;20577;-78
2023/09/05 11:46:34;;;;;;;2.78;2.08;;;;;;;;;;5044317;28;20024;-78
2023/09/05 11:49:00;;;;;;;1.90;1.80;;;;;;;;;;5069039;28;20038;-77
2023/09/05 11:51:26;;;;;;;2.28;2.03;;;;;;;;;;5024099;28;20028;-78
2023/09/05 11:53:51;;;;;;;3.08;1.83;;;;;;;;;;5011235;28;20356;-78
2023/09/05 11:56:17;;;;;;;1.77;1.67;;;;;;;;;;5034934;28;20136;-78
2023/09/05 11:58:43;;;;;;;6.18;1.80;;;;;;;;;;5049897;28;20031;-78
2023/09/05 12:01:08;;;;;;;3.40;1.80;;;;;;;;;;5026783;28;20067;-78
2023/09/05 12:03:38;;;;;;;4.38;2.45;;;;;;;;;;5021890;28;20042;-78
2023/09/05 12:06:04;;;;;;;3.58;1.77;;;;;;;;;;5038070;28;20050;-78
2023/09/05 12:08:30;;;;;;;2.45;1.80;;;;;;;;;;5066602;28;20465;-79
2023/09/05 12:10:57;;;;;;;3.45;1.90;;;;;;;;;;5091135;28;20127;-78
2023/09/05 12:13:39;;;;;;;3.17;1.80;;;;;;;;;;5053733;28;20061;-78
2023/09/05 12:16:09;;;;;;;4.22;1.70;;;;;;;;;;5077445;28;20032;-78
2023/09/05 12:18:34;;;;;;;2.10;1.98;;;;;;;;;;5089924;28;20379;-78
2023/09/05 12:21:00;;;;;;;2.65;1.58;;;;;;;;;;5071248;28;20041;-78
2023/09/05 12:23:29;;;;;;;2.30;2.08;;;;;;;;;;5078815;28;20030;-78
2023/09/05 12:25:55;;;;;;;1.95;1.70;;;;;;;;;;5097019;28;20039;-78
2023/09/05 12:28:22;;;;;;;1.95;1.85;;;;;;;;;;5086355;28;20035;-78
2023/09/05 12:30:53;;;;;;;1.83;1.70;;;;;;;;;;5094198;28;20489;-78
2023/09/05 12:33:19;;;;;;;1.83;1.73;;;;;;;;;;5071476;28;20029;-78
2023/09/05 12:35:45;;;;;;;2.00;1.90;;;;;;;;;;5097453;28;20019;-78
2023/09/05 12:38:10;;;;;;;1.90;1.70;;;;;;;;;;5082637;28;20050;-78
2023/09/05 12:40:36;;;;;;;1.83;1.67;;;;;;;;;;5088805;28;20131;-78
2023/09/05 12:43:02;;;;;;;2.55;1.60;;;;;;;;;;5055718;28;20049;-78
2023/09/05 12:45:27;;;;;;;1.35;1.35;;;;;;;;;;5084617;28;20113;-78
2023/09/05 12:47:53;;;;;;;1.58;1.48;;;;;;;;;;5062231;28;20027;-78
2023/09/05 12:50:29;;;;;;;3.80;1.70;;;;;;;;;;5048613;28;20095;-78
2023/09/05 12:53:05;;;;;;;4.03;1.65;;;;;;;;;;5055623;28;20035;-78
2023/09/05 12:55:32;;;;;;;1.75;1.65;;;;;;;;;;5070989;28;20029;-78
2023/09/05 12:57:58;;;;;;;1.95;1.50;;;;;;;;;;5054568;28;20054;-78
2023/09/05 13:00:23;;;;;;;7.57;1.85;;;;;;;;;;5073723;28;20203;-78
2023/09/05 13:02:48;;;;;;;1.83;1.73;;;;;;;;;;5095258;28;20089;-78
2023/09/05 13:05:13;;;;;;;3.58;1.77;;;;;;;;;;5070115;28;20066;-78
2023/09/05 13:07:39;;;;;;;2.30;1.50;;;;;;;;;;5088911;28;20043;-77
2023/09/05 13:10:06;;;;;;;1.70;1.60;;;;;;;;;;5067539;28;20118;-77
2023/09/05 13:12:32;;;;;;;1.50;1.40;;;;;;;;;;5087344;28;20673;-78
2023/09/05 13:14:58;;;;;;;6.40;1.60;;;;;;;;;;5090407;28;20075;-78
2023/09/05 13:17:24;;;;;;;3.35;1.92;;;;;;;;;;5089359;28;20059;-77
2023/09/05 13:19:49;;;;;;;2.70;2.22;;;;;;;;;;5086179;28;20096;-78
2023/09/05 13:22:17;;;;;;;2.22;1.70;;;;;;;;;;5082510;28;20042;-78
2023/09/05 13:24:45;;;;;;;2.10;1.58;;;;;;;;;;5088823;28;20039;-78
2023/09/05 13:27:12;;;;;;;1.70;1.60;;;;;;;;;;5076525;28;20030;-78
2023/09/05 13:29:38;;;;;;;1.60;1.50;;;;;;;;;;5049347;28;20022;-78
2023/09/05 13:32:10;;;;;;;1.75;1.65;;;;;;;;;;5071865;28;20032;-78
2023/09/05 13:34:37;;;;;;;4.82;1.85;;;;;;;;;;5069728;28;20161;-78
2023/09/05 13:37:03;;;;;;;1.95;1.80;;;;;;;;;;5080959;28;20111;-78
2023/09/05 13:39:30;;;;;;;4.13;1.83;;;;;;;;;;5066920;28;20034;-77
2023/09/05 13:41:56;;;;;;;4.57;1.60;;;;;;;;;;5086201;28;20023;-78
2023/09/05 13:44:21;;;;;;;1.67;1.58;;;;;;;;;;5076299;28;20041;-78
2023/09/05 13:46:50;;;;;;;1.92;1.60;;;;;;;;;;5081095;28;20629;-78
2023/09/05 13:49:15;;;;;;;2.75;1.70;;;;;;;;;;5083448;28;21308;-78
2023/09/05 13:51:40;;;;;;;1.83;1.42;;;;;;;;;;5052142;28;20058;-78
2023/09/05 13:54:05;;;;;;;2.45;1.67;;;;;;;;;;5095239;28;20423;-78
2023/09/05 13:56:31;;;;;;;1.90;1.63;;;;;;;;;;5079833;28;20018;-77
2023/09/05 13:58:57;;;;;;;1.80;1.70;;;;;;;;;;5078849;28;20036;-77
2023/09/05 14:01:22;;;;;;;5.97;1.63;;;;;;;;;;5086209;28;20044;-78
2023/09/05 14:03:48;;;;;;;1.88;1.70;;;;;;;;;;5064551;28;20107;-76
2023/09/05 14:06:14;;;;;;;2.17;1.98;;;;;;;;;;5082611;28;20409;-78
2023/09/05 14:08:40;;;;;;;1.92;1.83;;;;;;;;;;5078760;28;20092;-78
2023/09/05 14:11:06;;;;;;;1.70;1.60;;;;;;;;;;5093533;28;20595;-78
2023/09/05 14:13:31;;;;;;;3.15;1.58;;;;;;;;;;5067094;28;20066;-78
2023/09/05 14:15:59;;;;;;;1.85;1.63;;;;;;;;;;5080018;28;20051;-78
2023/09/05 14:18:24;;;;;;;1.50;1.40;;;;;;;;;;5073791;28;20051;-78
2023/09/05 14:20:50;;;;;;;1.50;1.40;;;;;;;;;;5087844;28;20053;-78
2023/09/05 14:23:15;;;;;;;1.65;1.38;;;;;;;;;;5093541;28;20575;-78
2023/09/05 14:25:40;;;;;;;4.65;1.70;;;;;;;;;;5053620;28;20038;-78
2023/09/05 14:28:06;;;;;;;1.58;1.48;;;;;;;;;;5066540;28;20083;-78
2023/09/05 14:30:31;;;;;;;1.85;1.60;;;;;;;;;;5058607;28;20065;-78
2023/09/05 14:32:57;;;;;;;3.15;1.48;;;;;;;;;;5064762;28;20027;-77
2023/09/05 14:35:23;;;;;;;5.88;1.40;;;;;;;;;;5072341;28;20032;-78
2023/09/05 14:37:49;;;;;;;1.40;1.30;;;;;;;;;;5091864;28;20502;-78
2023/09/05 14:40:14;;;;;;;1.60;1.50;;;;;;;;;;5059419;28;20030;-78
2023/09/05 14:42:40;;;;;;;1.40;1.30;;;;;;;;;;5065874;28;20034;-78